Terminal Aerodrome Forecast
Issued by NWS

Current Version | Previous Version | Text Only | Print | Product List | Glossary Off
Versions: 1 2 3 4 5 6 7 8 9 10 11 12 13 14 15 16 17 18 19 20 21 22 23 24 25 26 27 28 29 30 31 32

000
FTUS41 KRNK 280307 AAC
TAFLWB
TAF AMD
KLWB 280307Z 2803/2824 00000KT P6SM VCSH SCT050 BKN080
      TEMPO 2803/2806 3SM BR SCT007 BKN040
     FM280700 00000KT 3SM BR OVC007
     FM281100 00000KT 4SM SHRA BR VCSH OVC005
     FM281600 18003KT P6SM OVC015
     FM282100 25004KT P6SM -SHRA OVC025=

USA.gov is the U.S. government's official web portal to all federal, state and local government web resources and services.